Terminal Aerodrome Forecast
Issued by NWS Louisville, KY

Home | Current Version | Previous Version | Text Only | Print | Product List | Glossary On
Versions: 1 2 3 4 5 6 7 8 9 10 11 12 13 14 15 16 17 18 19 20 21 22
981
FTUS43 KLMK 150245 AAA
TAFBWG
TAF AMD
KBWG 150245Z 1503/1524 21013G23KT P6SM VCSH OVC008
     FM150900 22012KT 6SM -SHRA BR OVC012 WS020/24045KT
     FM151500 21015G25KT P6SM VCSH OVC015=

USA.gov is the U.S. government's official web portal to all federal, state and local government web resources and services.